Terminal Aerodrome Forecast
Issued by NWS Birmingham, AL

Home | Current Version | Previous Version | Text Only | Print | Product List | Glossary On
Versions: 1 2 3 4 5 6 7 8 9 10 11 12 13
099
FTUS44 KBMX 291739
TAFBHM
TAF
KBHM 291739Z 2918/3018 12007KT P6SM SCT050 BKN250
     FM292300 26004KT 6SM SHRA VCTS BKN045CB
      TEMPO 2923/3002 4SM TSRA OVC030CB
     FM300600 VRB03KT P6SM BKN080
     FM301500 19008KT P6SM BKN090=

USA.gov is the U.S. government's official web portal to all federal, state and local government web resources and services.